Friday, November 17, 2017, 2:30 PM EST
Back to Local

KUKT, Quakertown, Quakertown Airport

Location: Quakertown, PA, United States Lat: 40.435
Local Time: 2:30 PM EST (19:30 GMT) Lon: -75.382
Time Zone: US/Eastern Elev: 524 ft

Show me the last for .
Show Coded

Time T Td Feel RH Dir Speed Gust Alt SLP Vis Weather Sky Remarks
2017-11-17 14:15 46 23 44 39 290° 5 - 30.11 - 10 CLR None
2017-11-17 13:55 46 23 39 39 290° 12 20 30.11 - 10 CLR None
2017-11-17 13:35 46 23 40 39 280° 10 16 30.12 - 10 CLR None
2017-11-17 13:15 46 23 39 39 290° 10 17 30.12 - 10 CLR None
2017-11-17 12:55 46 21 39 36 310° 14 21 30.13 - 10 CLR None
2017-11-17 12:35 46 23 39 39 310° 10 17 30.12 - 10 CLR None
2017-11-17 12:15 45 25 37 45 280° 12 17 30.12 - 10 CLR None
2017-11-17 11:55 45 23 37 42 310° 12 17 30.13 - 10 CLR None
2017-11-17 11:35 45 23 37 42 320° 10 17 30.14 - 10 CLR None
2017-11-17 11:15 43 23 34 45 310° 9 20 30.14 - 10 CLR None
2017-11-17 10:55 41 25 35 52 330° 9 - 30.14 - 10 CLR None
2017-11-17 10:35 41 23 32 48 340° 10 17 30.14 - 10 CLR None
2017-11-17 10:15 41 25 33 52 330° 8 16 30.15 - 10 CLR None
2017-11-17 09:55 41 25 33 52 340° 12 16 30.16 - 10 CLR None
2017-11-17 09:35 41 25 32 52 340° 13 18 30.15 - 10 CLR None
2017-11-17 09:15 39 25 30 55 340° 13 17 30.15 - 10 CLR None
2017-11-17 08:55 39 25 29 55 320° 6 22 30.14 - 10 CLR None
2017-11-17 08:35 39 27 30 60 340° 14 17 30.13 - 10 FEW037 None
2017-11-17 08:15 39 25 34 55 330° 7 - 30.13 - 10 SCT037 None
2017-11-17 07:55 37 25 34 60 310° 5 - 30.13 - 10 FEW037 None
2017-11-17 07:35 37 25 28 60 320° 10 17 30.12 - 10 SCT037 None
2017-11-17 07:15 37 25 28 60 310° 8 16 30.11 - 10 SCT037 None
2017-11-17 06:55 37 25 27 60 310° 13 18 30.09 - 10 FEW037 None
2017-11-17 06:35 37 25 32 60 300° 7 - 30.09 - 10 SCT037 None
2017-11-17 06:15 37 27 35 64 300° 3 - 30.08 - 10 SCT039 None
2017-11-17 05:55 37 27 32 64 320° 7 - 30.07 - 10 FEW039 None
2017-11-17 05:35 37 27 31 64 330° 8 - 30.07 - 10 CLR None
2017-11-17 05:15 39 27 34 60 350° 7 - 30.06 - 10 CLR None
2017-11-17 04:55 39 28 32 64 340° 10 - 30.06 - 10 SCT037 None
2017-11-17 04:35 39 28 35 64 340° 6 - 30.05 - 10 BKN037 None
2017-11-17 04:15 41 28 38 60 340° 5 - 30.04 - 10 OVC037 None
2017-11-17 03:55 41 28 36 60 310° 8 - 30.03 - 10 BKN039 None
2017-11-17 03:35 41 28 36 60 290° 7 - 30.02 - 10 BKN041 None
2017-11-17 03:15 41 28 37 60 310° 6 - 30.02 - 10 OVC041 None
2017-11-17 02:55 41 28 36 60 320° 8 - 30.01 - 10 OVC041 None
2017-11-17 02:35 41 32 39 70 320° 3 - 30.01 - 10 OVC039 None
2017-11-17 02:15 41 32 38 70 340° 5 - 30.00 - 10 BKN037 OVC043 None
2017-11-17 01:55 41 30 35 65 360° 9 - 30.00 - 10 OVC035 None
2017-11-17 01:35 41 30 33 65 310° 9 16 29.99 - 10 BKN039 OVC048 None
2017-11-17 01:15 41 32 37 70 290° 6 - 29.98 - 10 FEW037 FEW043 OVC050 None
2017-11-17 00:55 41 32 36 70 310° 8 - 29.98 - 10 SCT038 OVC050 None
2017-11-17 00:35 41 32 36 70 300° 8 - 29.98 - 10 SCT038 OVC060 None
2017-11-17 00:15 41 32 33 70 310° 12 16 29.98 - 10 BKN038 OVC060 None
2017-11-16 23:55 41 32 36 70 310° 8 - 29.98 - 10 SCT038 BKN060 None
2017-11-16 23:35 41 32 36 70 300° 8 - 29.97 - 10 SCT060 None
2017-11-16 23:15 41 32 37 70 300° 6 - 29.96 - 10 FEW036 BKN060 None
2017-11-16 22:55 41 32 33 70 280° 9 16 29.96 - 10 BKN036 None
2017-11-16 22:35 41 32 36 70 290° 7 - 29.96 - 10 BKN036 None
2017-11-16 22:15 41 32 36 70 280° 8 - 29.96 - 10 SCT036 None
2017-11-16 21:55 41 32 35 70 280° 10 - 29.96 - 10 CLR None
2017-11-16 21:35 41 32 36 70 280° 7 - 29.96 - 10 CLR None
2017-11-16 21:15 41 32 35 70 290° 9 - 29.96 - 10 FEW038 None
2017-11-16 20:55 41 32 36 70 280° 7 - 29.96 - 10 CLR None
2017-11-16 20:35 43 32 39 65 280° 7 - 29.95 - 10 SCT040 None
2017-11-16 20:15 43 32 37 65 290° 10 - 29.95 - 10 BKN042 None
2017-11-16 19:55 45 32 37 61 280° 10 16 29.94 - 10 FEW042 None
2017-11-16 19:35 45 32 41 61 280° 6 - 29.94 - 10 CLR None
2017-11-16 19:15 45 32 37 61 270° 12 17 29.94 - 10 SCT046 None
2017-11-16 18:55 45 30 41 56 290° 7 - 29.93 - 10 SCT046 None
2017-11-16 18:35 45 32 36 61 280° 12 21 29.93 - 10 CLR None
2017-11-16 18:15 45 32 37 61 290° 5 17 29.93 - 10 CLR None
2017-11-16 17:55 45 32 42 61 310° 5 - 29.93 - 10 CLR None
2017-11-16 17:35 46 32 39 56 290° 10 18 29.91 - 10 SCT065 None
2017-11-16 17:15 46 32 39 56 290° 7 21 29.91 - 10 OVC065 None
2017-11-16 16:55 48 32 44 53 280° 10 - 29.90 - 10 SCT050 OVC065 None
2017-11-16 16:35 48 32 45 53 290° 7 - 29.89 - 10 BKN050 OVC060 None
2017-11-16 16:15 48 32 45 53 300° 8 - 29.88 - 10 BKN060 None
2017-11-16 15:55 48 34 42 57 310° 8 17 29.88 - 10 CLR None
2017-11-16 15:35 48 34 41 57 310° 13 20 29.87 - 10 CLR None
2017-11-16 15:15 48 36 41 61 310° 12 20 29.86 - 10 CLR None
2017-11-16 14:55 46 36 39 65 300° 10 18 29.85 - 10 FEW017 FEW030 SCT040 1-hr Precip Total: 0.03"
2017-11-16 14:35 46 37 38 70 290° 10 25 29.85 - 4 FEW017 BKN030 BKN041 1-hr Precip Total: 0.03"

Support USWX by starting your Amazon purchase here.